sensor_id;sensor_type;location;lat;lon;timestamp;P1;durP1;ratioP1;P2;durP2;ratioP2
41635;SDS011;27623;51.966;4.602;2023-04-15T00:00:09;6.68;;;2.80;;
41635;SDS011;27623;51.966;4.602;2023-04-15T00:02:37;7.18;;;3.28;;
41635;SDS011;27623;51.966;4.602;2023-04-15T00:05:03;6.97;;;2.38;;
41635;SDS011;27623;51.966;4.602;2023-04-15T00:07:30;8.40;;;2.60;;
41635;SDS011;27623;51.966;4.602;2023-04-15T00:09:55;6.50;;;2.58;;
41635;SDS011;27623;51.966;4.602;2023-04-15T00:12:22;10.07;;;2.90;;
41635;SDS011;27623;51.966;4.602;2023-04-15T00:14:53;6.25;;;2.78;;
41635;SDS011;27623;51.966;4.602;2023-04-15T00:17:19;10.45;;;3.65;;
41635;SDS011;27623;51.966;4.602;2023-04-15T00:19:45;9.10;;;3.05;;
41635;SDS011;27623;51.966;4.602;2023-04-15T00:22:10;7.82;;;2.83;;
41635;SDS011;27623;51.966;4.602;2023-04-15T00:24:36;11.43;;;2.72;;
41635;SDS011;27623;51.966;4.602;2023-04-15T00:27:02;7.78;;;2.83;;
41635;SDS011;27623;51.966;4.602;2023-04-15T00:29:28;10.43;;;3.15;;
41635;SDS011;27623;51.966;4.602;2023-04-15T00:31:54;8.45;;;3.03;;
41635;SDS011;27623;51.966;4.602;2023-04-15T00:34:22;8.38;;;3.08;;
41635;SDS011;27623;51.966;4.602;2023-04-15T00:36:48;8.93;;;3.25;;
41635;SDS011;27623;51.966;4.602;2023-04-15T00:39:14;10.75;;;3.63;;
41635;SDS011;27623;51.966;4.602;2023-04-15T00:41:40;5.72;;;2.97;;
41635;SDS011;27623;51.966;4.602;2023-04-15T00:44:06;10.18;;;3.75;;
41635;SDS011;27623;51.966;4.602;2023-04-15T00:46:35;8.05;;;3.05;;
41635;SDS011;27623;51.966;4.602;2023-04-15T00:49:05;14.77;;;3.63;;
41635;SDS011;27623;51.966;4.602;2023-04-15T00:51:31;7.57;;;2.97;;
41635;SDS011;27623;51.966;4.602;2023-04-15T00:54:01;10.18;;;3.78;;
41635;SDS011;27623;51.966;4.602;2023-04-15T00:56:27;10.52;;;3.05;;
41635;SDS011;27623;51.966;4.602;2023-04-15T00:58:53;8.15;;;3.88;;
41635;SDS011;27623;51.966;4.602;2023-04-15T01:01:20;9.38;;;3.55;;
41635;SDS011;27623;51.966;4.602;2023-04-15T01:03:49;8.85;;;4.00;;
41635;SDS011;27623;51.966;4.602;2023-04-15T01:06:15;11.45;;;3.55;;
41635;SDS011;27623;51.966;4.602;2023-04-15T01:08:41;10.15;;;3.58;;
41635;SDS011;27623;51.966;4.602;2023-04-15T01:11:07;10.30;;;3.65;;
41635;SDS011;27623;51.966;4.602;2023-04-15T01:13:34;7.40;;;3.78;;
41635;SDS011;27623;51.966;4.602;2023-04-15T01:16:03;6.10;;;3.22;;
41635;SDS011;27623;51.966;4.602;2023-04-15T01:18:29;9.05;;;3.50;;
41635;SDS011;27623;51.966;4.602;2023-04-15T01:20:55;11.15;;;4.13;;
41635;SDS011;27623;51.966;4.602;2023-04-15T01:23:21;7.13;;;3.60;;
41635;SDS011;27623;51.966;4.602;2023-04-15T01:25:49;10.68;;;4.30;;
41635;SDS011;27623;51.966;4.602;2023-04-15T01:28:17;7.68;;;3.85;;
41635;SDS011;27623;51.966;4.602;2023-04-15T01:30:42;7.28;;;4.00;;
41635;SDS011;27623;51.966;4.602;2023-04-15T01:33:08;10.48;;;3.50;;
41635;SDS011;27623;51.966;4.602;2023-04-15T01:35:37;8.50;;;3.17;;
41635;SDS011;27623;51.966;4.602;2023-04-15T01:38:06;9.65;;;3.85;;
41635;SDS011;27623;51.966;4.602;2023-04-15T01:40:33;7.03;;;3.55;;
41635;SDS011;27623;51.966;4.602;2023-04-15T01:42:59;7.63;;;3.72;;
41635;SDS011;27623;51.966;4.602;2023-04-15T01:45:28;6.65;;;3.97;;
41635;SDS011;27623;51.966;4.602;2023-04-15T01:47:53;5.22;;;3.40;;
41635;SDS011;27623;51.966;4.602;2023-04-15T01:50:19;7.55;;;3.85;;
41635;SDS011;27623;51.966;4.602;2023-04-15T01:52:50;10.13;;;4.22;;
41635;SDS011;27623;51.966;4.602;2023-04-15T01:55:15;7.85;;;4.45;;
41635;SDS011;27623;51.966;4.602;2023-04-15T01:57:41;9.30;;;4.03;;
41635;SDS011;27623;51.966;4.602;2023-04-15T02:00:06;8.90;;;3.92;;
41635;SDS011;27623;51.966;4.602;2023-04-15T02:02:32;7.63;;;3.92;;
41635;SDS011;27623;51.966;4.602;2023-04-15T02:04:58;9.15;;;3.80;;
41635;SDS011;27623;51.966;4.602;2023-04-15T02:07:23;10.18;;;4.15;;
41635;SDS011;27623;51.966;4.602;2023-04-15T02:09:49;8.85;;;4.95;;
41635;SDS011;27623;51.966;4.602;2023-04-15T02:12:14;9.05;;;4.13;;
41635;SDS011;27623;51.966;4.602;2023-04-15T02:14:40;8.00;;;4.35;;
41635;SDS011;27623;51.966;4.602;2023-04-15T02:17:05;8.90;;;4.40;;
41635;SDS011;27623;51.966;4.602;2023-04-15T02:19:33;10.57;;;5.28;;
41635;SDS011;27623;51.966;4.602;2023-04-15T02:21:59;8.68;;;4.43;;
41635;SDS011;27623;51.966;4.602;2023-04-15T02:24:26;8.82;;;4.60;;
41635;SDS011;27623;51.966;4.602;2023-04-15T02:26:55;10.10;;;4.10;;
41635;SDS011;27623;51.966;4.602;2023-04-15T02:29:21;9.25;;;4.25;;
41635;SDS011;27623;51.966;4.602;2023-04-15T02:31:47;9.38;;;4.65;;
41635;SDS011;27623;51.966;4.602;2023-04-15T02:34:13;7.38;;;4.53;;
41635;SDS011;27623;51.966;4.602;2023-04-15T02:36:38;8.65;;;4.50;;
41635;SDS011;27623;51.966;4.602;2023-04-15T02:39:04;9.55;;;4.43;;
41635;SDS011;27623;51.966;4.602;2023-04-15T02:41:30;7.38;;;3.88;;
41635;SDS011;27623;51.966;4.602;2023-04-15T02:43:55;11.82;;;5.07;;
41635;SDS011;27623;51.966;4.602;2023-04-15T02:46:21;8.32;;;4.70;;
41635;SDS011;27623;51.966;4.602;2023-04-15T02:48:47;8.25;;;4.28;;
41635;SDS011;27623;51.966;4.602;2023-04-15T02:51:18;11.07;;;4.88;;
41635;SDS011;27623;51.966;4.602;2023-04-15T02:53:46;9.50;;;4.30;;
41635;SDS011;27623;51.966;4.602;2023-04-15T02:56:13;9.95;;;4.20;;
41635;SDS011;27623;51.966;4.602;2023-04-15T02:58:40;8.57;;;4.35;;
41635;SDS011;27623;51.966;4.602;2023-04-15T03:01:06;9.57;;;4.60;;
41635;SDS011;27623;51.966;4.602;2023-04-15T03:03:35;9.30;;;4.28;;
41635;SDS011;27623;51.966;4.602;2023-04-15T03:06:02;9.48;;;4.70;;
41635;SDS011;27623;51.966;4.602;2023-04-15T03:08:28;8.45;;;4.63;;
41635;SDS011;27623;51.966;4.602;2023-04-15T03:10:57;9.02;;;4.53;;
41635;SDS011;27623;51.966;4.602;2023-04-15T03:13:24;10.35;;;4.65;;
41635;SDS011;27623;51.966;4.602;2023-04-15T03:15:50;7.78;;;4.38;;
41635;SDS011;27623;51.966;4.602;2023-04-15T03:18:16;9.05;;;4.70;;
41635;SDS011;27623;51.966;4.602;2023-04-15T03:20:41;8.90;;;4.07;;
41635;SDS011;27623;51.966;4.602;2023-04-15T03:23:08;7.93;;;4.45;;
41635;SDS011;27623;51.966;4.602;2023-04-15T03:25:34;10.02;;;4.68;;
41635;SDS011;27623;51.966;4.602;2023-04-15T03:28:01;12.85;;;4.75;;
41635;SDS011;27623;51.966;4.602;2023-04-15T03:30:27;11.50;;;4.65;;
41635;SDS011;27623;51.966;4.602;2023-04-15T03:32:55;6.43;;;4.05;;
41635;SDS011;27623;51.966;4.602;2023-04-15T03:35:20;10.60;;;4.03;;
41635;SDS011;27623;51.966;4.602;2023-04-15T03:37:45;6.82;;;3.97;;
41635;SDS011;27623;51.966;4.602;2023-04-15T03:40:13;10.90;;;4.47;;
41635;SDS011;27623;51.966;4.602;2023-04-15T03:42:38;8.93;;;4.68;;
41635;SDS011;27623;51.966;4.602;2023-04-15T03:45:04;6.07;;;4.72;;
41635;SDS011;27623;51.966;4.602;2023-04-15T03:47:33;8.75;;;4.90;;
41635;SDS011;27623;51.966;4.602;2023-04-15T03:50:01;7.97;;;4.38;;
41635;SDS011;27623;51.966;4.602;2023-04-15T03:52:26;9.32;;;4.57;;
41635;SDS011;27623;51.966;4.602;2023-04-15T03:54:54;9.02;;;4.47;;
41635;SDS011;27623;51.966;4.602;2023-04-15T03:57:20;8.30;;;4.35;;
41635;SDS011;27623;51.966;4.602;2023-04-15T03:59:45;8.85;;;4.95;;
41635;SDS011;27623;51.966;4.602;2023-04-15T04:02:13;8.52;;;4.60;;
41635;SDS011;27623;51.966;4.602;2023-04-15T04:04:38;6.97;;;4.90;;
41635;SDS011;27623;51.966;4.602;2023-04-15T04:07:03;11.07;;;4.78;;
41635;SDS011;27623;51.966;4.602;2023-04-15T04:09:29;7.88;;;4.57;;
41635;SDS011;27623;51.966;4.602;2023-04-15T04:11:56;10.50;;;4.63;;
41635;SDS011;27623;51.966;4.602;2023-04-15T04:14:22;8.18;;;4.68;;
41635;SDS011;27623;51.966;4.602;2023-04-15T04:16:53;7.55;;;4.15;;
41635;SDS011;27623;51.966;4.602;2023-04-15T04:19:21;11.73;;;5.00;;
41635;SDS011;27623;51.966;4.602;2023-04-15T04:21:46;9.57;;;4.55;;
41635;SDS011;27623;51.966;4.602;2023-04-15T04:24:12;8.45;;;5.20;;
41635;SDS011;27623;51.966;4.602;2023-04-15T04:26:37;7.35;;;4.45;;
41635;SDS011;27623;51.966;4.602;2023-04-15T04:29:02;9.40;;;4.47;;
41635;SDS011;27623;51.966;4.602;2023-04-15T04:31:28;9.73;;;5.22;;
41635;SDS011;27623;51.966;4.602;2023-04-15T04:33:53;10.82;;;4.57;;
41635;SDS011;27623;51.966;4.602;2023-04-15T04:36:18;11.00;;;5.28;;
41635;SDS011;27623;51.966;4.602;2023-04-15T04:38:46;10.88;;;5.10;;
41635;SDS011;27623;51.966;4.602;2023-04-15T04:41:11;8.75;;;5.00;;
41635;SDS011;27623;51.966;4.602;2023-04-15T04:43:37;10.05;;;4.85;;
41635;SDS011;27623;51.966;4.602;2023-04-15T04:46:02;12.38;;;5.00;;
41635;SDS011;27623;51.966;4.602;2023-04-15T04:48:30;8.70;;;4.90;;
41635;SDS011;27623;51.966;4.602;2023-04-15T04:50:57;13.20;;;4.78;;
41635;SDS011;27623;51.966;4.602;2023-04-15T04:53:23;10.75;;;4.40;;
41635;SDS011;27623;51.966;4.602;2023-04-15T04:55:48;9.98;;;5.32;;
41635;SDS011;27623;51.966;4.602;2023-04-15T04:58:13;10.45;;;5.00;;
41635;SDS011;27623;51.966;4.602;2023-04-15T05:00:39;9.30;;;5.40;;
41635;SDS011;27623;51.966;4.602;2023-04-15T05:03:05;12.30;;;4.93;;
41635;SDS011;27623;51.966;4.602;2023-04-15T05:05:30;8.25;;;5.15;;
41635;SDS011;27623;51.966;4.602;2023-04-15T05:08:00;9.13;;;4.50;;
41635;SDS011;27623;51.966;4.602;2023-04-15T05:10:26;11.57;;;5.35;;
41635;SDS011;27623;51.966;4.602;2023-04-15T05:12:51;11.65;;;4.93;;
41635;SDS011;27623;51.966;4.602;2023-04-15T05:15:17;9.50;;;5.35;;
41635;SDS011;27623;51.966;4.602;2023-04-15T05:17:42;10.57;;;5.63;;
41635;SDS011;27623;51.966;4.602;2023-04-15T05:20:08;8.68;;;4.75;;
41635;SDS011;27623;51.966;4.602;2023-04-15T05:22:34;9.90;;;5.57;;
41635;SDS011;27623;51.966;4.602;2023-04-15T05:25:00;7.25;;;4.72;;
41635;SDS011;27623;51.966;4.602;2023-04-15T05:27:25;8.68;;;5.20;;
41635;SDS011;27623;51.966;4.602;2023-04-15T05:29:50;10.38;;;5.20;;
41635;SDS011;27623;51.966;4.602;2023-04-15T05:32:16;10.73;;;5.72;;
41635;SDS011;27623;51.966;4.602;2023-04-15T05:34:44;9.68;;;4.95;;
41635;SDS011;27623;51.966;4.602;2023-04-15T05:37:11;10.52;;;4.93;;
41635;SDS011;27623;51.966;4.602;2023-04-15T05:39:37;9.23;;;5.63;;
41635;SDS011;27623;51.966;4.602;2023-04-15T05:42:02;11.25;;;4.93;;
41635;SDS011;27623;51.966;4.602;2023-04-15T05:44:29;9.95;;;5.40;;
41635;SDS011;27623;51.966;4.602;2023-04-15T05:46:55;9.23;;;5.53;;
41635;SDS011;27623;51.966;4.602;2023-04-15T05:49:23;10.13;;;5.60;;
41635;SDS011;27623;51.966;4.602;2023-04-15T05:51:51;11.70;;;5.90;;
41635;SDS011;27623;51.966;4.602;2023-04-15T05:54:18;8.80;;;5.38;;
41635;SDS011;27623;51.966;4.602;2023-04-15T05:56:44;9.95;;;5.18;;
41635;SDS011;27623;51.966;4.602;2023-04-15T05:59:12;10.07;;;5.32;;
41635;SDS011;27623;51.966;4.602;2023-04-15T06:01:37;9.93;;;5.30;;
41635;SDS011;27623;51.966;4.602;2023-04-15T06:04:02;10.02;;;5.28;;
41635;SDS011;27623;51.966;4.602;2023-04-15T06:06:28;10.07;;;6.25;;
41635;SDS011;27623;51.966;4.602;2023-04-15T06:08:53;12.68;;;5.35;;
41635;SDS011;27623;51.966;4.602;2023-04-15T06:11:20;10.73;;;5.20;;
41635;SDS011;27623;51.966;4.602;2023-04-15T06:13:47;8.85;;;5.10;;
41635;SDS011;27623;51.966;4.602;2023-04-15T06:16:13;9.73;;;5.43;;
41635;SDS011;27623;51.966;4.602;2023-04-15T06:18:38;9.15;;;5.72;;
41635;SDS011;27623;51.966;4.602;2023-04-15T06:21:04;11.32;;;5.95;;
41635;SDS011;27623;51.966;4.602;2023-04-15T06:23:35;9.82;;;5.18;;
41635;SDS011;27623;51.966;4.602;2023-04-15T06:26:01;13.30;;;5.10;;
41635;SDS011;27623;51.966;4.602;2023-04-15T06:28:29;10.32;;;5.35;;
41635;SDS011;27623;51.966;4.602;2023-04-15T06:30:56;11.25;;;5.38;;
41635;SDS011;27623;51.966;4.602;2023-04-15T06:33:22;10.02;;;6.00;;
41635;SDS011;27623;51.966;4.602;2023-04-15T06:35:47;12.52;;;6.20;;
41635;SDS011;27623;51.966;4.602;2023-04-15T06:38:13;11.45;;;5.72;;
41635;SDS011;27623;51.966;4.602;2023-04-15T06:40:39;11.23;;;5.90;;
41635;SDS011;27623;51.966;4.602;2023-04-15T06:43:04;10.20;;;5.50;;
41635;SDS011;27623;51.966;4.602;2023-04-15T06:45:30;12.20;;;6.35;;
41635;SDS011;27623;51.966;4.602;2023-04-15T06:47:56;9.85;;;5.65;;
41635;SDS011;27623;51.966;4.602;2023-04-15T06:50:21;11.43;;;4.90;;
41635;SDS011;27623;51.966;4.602;2023-04-15T06:52:47;14.00;;;5.65;;
41635;SDS011;27623;51.966;4.602;2023-04-15T06:55:15;10.15;;;5.32;;
41635;SDS011;27623;51.966;4.602;2023-04-15T06:57:40;10.88;;;5.43;;
41635;SDS011;27623;51.966;4.602;2023-04-15T07:00:06;10.23;;;5.65;;
41635;SDS011;27623;51.966;4.602;2023-04-15T07:02:32;9.18;;;5.72;;
41635;SDS011;27623;51.966;4.602;2023-04-15T07:04:57;11.23;;;5.50;;
41635;SDS011;27623;51.966;4.602;2023-04-15T07:07:23;11.93;;;6.00;;
41635;SDS011;27623;51.966;4.602;2023-04-15T07:09:52;8.75;;;5.88;;
41635;SDS011;27623;51.966;4.602;2023-04-15T07:12:17;10.35;;;5.72;;
41635;SDS011;27623;51.966;4.602;2023-04-15T07:14:43;11.45;;;6.60;;
41635;SDS011;27623;51.966;4.602;2023-04-15T07:17:08;11.35;;;5.50;;
41635;SDS011;27623;51.966;4.602;2023-04-15T07:19:36;9.07;;;6.00;;
41635;SDS011;27623;51.966;4.602;2023-04-15T07:22:01;8.77;;;5.85;;
41635;SDS011;27623;51.966;4.602;2023-04-15T07:24:27;13.25;;;6.22;;
41635;SDS011;27623;51.966;4.602;2023-04-15T07:26:53;12.45;;;6.20;;
41635;SDS011;27623;51.966;4.602;2023-04-15T07:29:21;13.45;;;5.82;;
41635;SDS011;27623;51.966;4.602;2023-04-15T07:31:46;9.15;;;5.82;;
41635;SDS011;27623;51.966;4.602;2023-04-15T07:34:12;11.30;;;6.50;;
41635;SDS011;27623;51.966;4.602;2023-04-15T07:36:37;8.88;;;5.82;;
41635;SDS011;27623;51.966;4.602;2023-04-15T07:39:04;10.40;;;6.55;;
41635;SDS011;27623;51.966;4.602;2023-04-15T07:41:29;9.57;;;5.78;;
41635;SDS011;27623;51.966;4.602;2023-04-15T07:43:55;11.30;;;6.00;;
41635;SDS011;27623;51.966;4.602;2023-04-15T07:46:21;9.27;;;5.45;;
41635;SDS011;27623;51.966;4.602;2023-04-15T07:48:50;9.25;;;5.78;;
41635;SDS011;27623;51.966;4.602;2023-04-15T07:51:16;9.48;;;5.97;;
41635;SDS011;27623;51.966;4.602;2023-04-15T07:53:41;10.70;;;6.10;;
41635;SDS011;27623;51.966;4.602;2023-04-15T07:56:07;10.52;;;5.88;;
41635;SDS011;27623;51.966;4.602;2023-04-15T07:58:32;12.98;;;5.25;;
41635;SDS011;27623;51.966;4.602;2023-04-15T08:00:57;7.60;;;5.20;;
41635;SDS011;27623;51.966;4.602;2023-04-15T08:03:23;12.02;;;5.22;;
41635;SDS011;27623;51.966;4.602;2023-04-15T08:05:51;9.18;;;5.22;;
41635;SDS011;27623;51.966;4.602;2023-04-15T08:08:19;9.30;;;5.70;;
41635;SDS011;27623;51.966;4.602;2023-04-15T08:10:47;8.23;;;5.20;;
41635;SDS011;27623;51.966;4.602;2023-04-15T08:13:16;7.95;;;4.80;;
41635;SDS011;27623;51.966;4.602;2023-04-15T08:15:41;9.65;;;5.30;;
41635;SDS011;27623;51.966;4.602;2023-04-15T08:18:07;8.95;;;4.85;;
41635;SDS011;27623;51.966;4.602;2023-04-15T08:20:35;8.25;;;4.72;;
41635;SDS011;27623;51.966;4.602;2023-04-15T08:23:01;11.48;;;5.95;;
41635;SDS011;27623;51.966;4.602;2023-04-15T08:25:27;9.82;;;5.82;;
41635;SDS011;27623;51.966;4.602;2023-04-15T08:27:55;8.70;;;5.60;;
41635;SDS011;27623;51.966;4.602;2023-04-15T08:30:21;9.35;;;5.70;;
41635;SDS011;27623;51.966;4.602;2023-04-15T08:32:46;9.48;;;5.18;;
41635;SDS011;27623;51.966;4.602;2023-04-15T08:35:13;9.82;;;5.90;;
41635;SDS011;27623;51.966;4.602;2023-04-15T08:37:39;8.85;;;5.65;;
41635;SDS011;27623;51.966;4.602;2023-04-15T08:40:04;9.38;;;5.35;;
41635;SDS011;27623;51.966;4.602;2023-04-15T08:42:31;10.98;;;5.40;;
41635;SDS011;27623;51.966;4.602;2023-04-15T08:45:05;13.02;;;6.50;;
41635;SDS011;27623;51.966;4.602;2023-04-15T08:47:34;10.00;;;5.30;;
41635;SDS011;27623;51.966;4.602;2023-04-15T08:50:02;9.63;;;5.75;;
41635;SDS011;27623;51.966;4.602;2023-04-15T08:52:29;9.43;;;5.45;;
41635;SDS011;27623;51.966;4.602;2023-04-15T08:54:56;12.25;;;5.97;;
41635;SDS011;27623;51.966;4.602;2023-04-15T08:57:25;8.18;;;5.15;;
41635;SDS011;27623;51.966;4.602;2023-04-15T08:59:52;10.60;;;4.80;;
41635;SDS011;27623;51.966;4.602;2023-04-15T09:02:20;8.70;;;5.05;;
41635;SDS011;27623;51.966;4.602;2023-04-15T09:04:49;10.65;;;5.32;;
41635;SDS011;27623;51.966;4.602;2023-04-15T09:07:15;9.15;;;5.00;;
41635;SDS011;27623;51.966;4.602;2023-04-15T09:09:40;9.38;;;4.97;;
41635;SDS011;27623;51.966;4.602;2023-04-15T09:12:06;9.35;;;5.20;;
41635;SDS011;27623;51.966;4.602;2023-04-15T09:14:33;9.93;;;5.47;;
41635;SDS011;27623;51.966;4.602;2023-04-15T09:16:59;11.77;;;5.00;;
41635;SDS011;27623;51.966;4.602;2023-04-15T09:19:26;9.52;;;5.32;;
41635;SDS011;27623;51.966;4.602;2023-04-15T09:21:56;9.95;;;4.95;;
41635;SDS011;27623;51.966;4.602;2023-04-15T09:24:22;11.35;;;4.40;;
41635;SDS011;27623;51.966;4.602;2023-04-15T09:26:51;7.15;;;4.25;;
41635;SDS011;27623;51.966;4.602;2023-04-15T09:29:19;9.77;;;4.53;;
41635;SDS011;27623;51.966;4.602;2023-04-15T09:31:51;8.10;;;3.88;;
41635;SDS011;27623;51.966;4.602;2023-04-15T09:34:17;6.65;;;3.83;;
41635;SDS011;27623;51.966;4.602;2023-04-15T09:36:52;6.25;;;3.50;;
41635;SDS011;27623;51.966;4.602;2023-04-15T09:39:19;6.28;;;3.88;;
41635;SDS011;27623;51.966;4.602;2023-04-15T09:41:47;11.00;;;4.07;;
41635;SDS011;27623;51.966;4.602;2023-04-15T09:44:28;6.63;;;4.03;;
41635;SDS011;27623;51.966;4.602;2023-04-15T09:46:53;8.57;;;3.85;;
41635;SDS011;27623;51.966;4.602;2023-04-15T09:49:19;8.88;;;3.75;;
41635;SDS011;27623;51.966;4.602;2023-04-15T09:51:47;6.97;;;2.80;;
41635;SDS011;27623;51.966;4.602;2023-04-15T09:54:17;7.43;;;3.25;;
41635;SDS011;27623;51.966;4.602;2023-04-15T09:56:44;7.82;;;2.70;;
41635;SDS011;27623;51.966;4.602;2023-04-15T09:59:09;6.72;;;3.15;;
41635;SDS011;27623;51.966;4.602;2023-04-15T10:01:35;5.00;;;2.70;;
41635;SDS011;27623;51.966;4.602;2023-04-15T10:04:06;3.88;;;2.20;;
41635;SDS011;27623;51.966;4.602;2023-04-15T10:06:33;12.02;;;2.65;;
41635;SDS011;27623;51.966;4.602;2023-04-15T10:08:59;6.07;;;2.25;;
41635;SDS011;27623;51.966;4.602;2023-04-15T10:11:27;4.70;;;2.03;;
41635;SDS011;27623;51.966;4.602;2023-04-15T10:13:53;7.30;;;2.15;;
41635;SDS011;27623;51.966;4.602;2023-04-15T10:16:20;6.22;;;1.85;;
41635;SDS011;27623;51.966;4.602;2023-04-15T10:18:53;4.95;;;1.70;;
41635;SDS011;27623;51.966;4.602;2023-04-15T10:21:20;6.57;;;1.42;;
41635;SDS011;27623;51.966;4.602;2023-04-15T10:23:47;4.18;;;1.73;;
41635;SDS011;27623;51.966;4.602;2023-04-15T10:26:14;4.00;;;1.90;;
41635;SDS011;27623;51.966;4.602;2023-04-15T10:28:41;6.88;;;2.08;;
41635;SDS011;27623;51.966;4.602;2023-04-15T10:31:06;10.27;;;1.90;;
41635;SDS011;27623;51.966;4.602;2023-04-15T10:33:36;4.40;;;1.88;;
41635;SDS011;27623;51.966;4.602;2023-04-15T10:36:03;3.78;;;1.85;;
41635;SDS011;27623;51.966;4.602;2023-04-15T10:38:31;5.45;;;1.85;;
41635;SDS011;27623;51.966;4.602;2023-04-15T10:43:37;3.78;;;1.60;;
41635;SDS011;27623;51.966;4.602;2023-04-15T10:46:04;3.90;;;1.48;;
41635;SDS011;27623;51.966;4.602;2023-04-15T10:48:30;4.15;;;1.80;;
41635;SDS011;27623;51.966;4.602;2023-04-15T10:50:56;4.30;;;1.35;;
41635;SDS011;27623;51.966;4.602;2023-04-15T10:53:28;4.22;;;1.63;;
41635;SDS011;27623;51.966;4.602;2023-04-15T10:55:55;4.28;;;1.90;;
41635;SDS011;27623;51.966;4.602;2023-04-15T10:58:26;5.70;;;2.55;;
41635;SDS011;27623;51.966;4.602;2023-04-15T11:01:06;3.85;;;1.92;;
41635;SDS011;27623;51.966;4.602;2023-04-15T11:03:38;5.40;;;2.83;;
41635;SDS011;27623;51.966;4.602;2023-04-15T11:06:06;4.38;;;2.00;;
41635;SDS011;27623;51.966;4.602;2023-04-15T11:11:17;5.90;;;2.00;;
41635;SDS011;27623;51.966;4.602;2023-04-15T11:13:49;4.70;;;2.20;;
41635;SDS011;27623;51.966;4.602;2023-04-15T11:16:16;3.05;;;1.70;;
41635;SDS011;27623;51.966;4.602;2023-04-15T11:18:42;3.10;;;1.77;;
41635;SDS011;27623;51.966;4.602;2023-04-15T11:21:18;5.72;;;2.13;;
41635;SDS011;27623;51.966;4.602;2023-04-15T11:23:48;4.50;;;2.10;;
41635;SDS011;27623;51.966;4.602;2023-04-15T11:26:14;3.85;;;1.95;;
41635;SDS011;27623;51.966;4.602;2023-04-15T11:28:43;3.90;;;1.95;;
41635;SDS011;27623;51.966;4.602;2023-04-15T11:31:13;3.55;;;2.17;;
41635;SDS011;27623;51.966;4.602;2023-04-15T11:33:47;4.63;;;1.90;;
41635;SDS011;27623;51.966;4.602;2023-04-15T11:36:19;9.43;;;1.83;;
41635;SDS011;27623;51.966;4.602;2023-04-15T11:38:45;3.45;;;1.83;;
41635;SDS011;27623;51.966;4.602;2023-04-15T11:41:11;5.28;;;2.20;;
41635;SDS011;27623;51.966;4.602;2023-04-15T11:43:37;4.82;;;2.03;;
41635;SDS011;27623;51.966;4.602;2023-04-15T11:46:05;3.15;;;1.50;;
41635;SDS011;27623;51.966;4.602;2023-04-15T11:48:31;3.28;;;1.48;;
41635;SDS011;27623;51.966;4.602;2023-04-15T11:50:59;4.60;;;1.83;;
41635;SDS011;27623;51.966;4.602;2023-04-15T11:53:36;4.63;;;1.52;;
41635;SDS011;27623;51.966;4.602;2023-04-15T11:56:10;3.75;;;2.00;;
41635;SDS011;27623;51.966;4.602;2023-04-15T11:58:41;4.85;;;1.90;;
41635;SDS011;27623;51.966;4.602;2023-04-15T12:01:07;5.25;;;1.83;;
41635;SDS011;27623;51.966;4.602;2023-04-15T12:03:36;7.32;;;2.25;;
41635;SDS011;27623;51.966;4.602;2023-04-15T12:14:01;6.30;;;2.30;;
41635;SDS011;27623;51.966;4.602;2023-04-15T12:16:32;4.53;;;2.35;;
41635;SDS011;27623;51.966;4.602;2023-04-15T12:18:59;6.57;;;2.80;;
41635;SDS011;27623;51.966;4.602;2023-04-15T12:21:34;4.68;;;2.47;;
41635;SDS011;27623;51.966;4.602;2023-04-15T12:24:02;4.93;;;2.05;;
41635;SDS011;27623;51.966;4.602;2023-04-15T12:26:37;5.03;;;2.03;;
41635;SDS011;27623;51.966;4.602;2023-04-15T12:29:08;3.92;;;1.48;;
41635;SDS011;27623;51.966;4.602;2023-04-15T12:31:35;2.95;;;1.40;;
41635;SDS011;27623;51.966;4.602;2023-04-15T12:34:02;3.40;;;1.48;;
41635;SDS011;27623;51.966;4.602;2023-04-15T12:36:29;3.03;;;1.70;;
41635;SDS011;27623;51.966;4.602;2023-04-15T12:39:00;2.33;;;1.20;;
41635;SDS011;27623;51.966;4.602;2023-04-15T12:41:26;2.25;;;1.10;;
41635;SDS011;27623;51.966;4.602;2023-04-15T12:43:51;3.33;;;1.40;;
41635;SDS011;27623;51.966;4.602;2023-04-15T12:46:16;2.92;;;1.05;;
41635;SDS011;27623;51.966;4.602;2023-04-15T12:48:42;4.15;;;1.48;;
41635;SDS011;27623;51.966;4.602;2023-04-15T12:51:08;4.25;;;1.60;;
41635;SDS011;27623;51.966;4.602;2023-04-15T12:53:33;4.22;;;1.20;;
41635;SDS011;27623;51.966;4.602;2023-04-15T12:55:59;2.72;;;1.02;;
41635;SDS011;27623;51.966;4.602;2023-04-15T12:58:24;2.53;;;1.20;;
41635;SDS011;27623;51.966;4.602;2023-04-15T13:00:49;3.42;;;1.02;;
41635;SDS011;27623;51.966;4.602;2023-04-15T13:03:15;2.40;;;1.20;;
41635;SDS011;27623;51.966;4.602;2023-04-15T13:05:41;3.13;;;1.20;;
41635;SDS011;27623;51.966;4.602;2023-04-15T13:08:06;3.00;;;1.48;;
41635;SDS011;27623;51.966;4.602;2023-04-15T13:10:34;12.65;;;1.55;;
41635;SDS011;27623;51.966;4.602;2023-04-15T13:13:03;2.65;;;1.23;;
41635;SDS011;27623;51.966;4.602;2023-04-15T13:15:29;2.10;;;1.20;;
41635;SDS011;27623;51.966;4.602;2023-04-15T13:17:54;5.45;;;1.25;;
41635;SDS011;27623;51.966;4.602;2023-04-15T13:20:19;3.28;;;1.20;;
41635;SDS011;27623;51.966;4.602;2023-04-15T13:22:45;2.95;;;1.00;;
41635;SDS011;27623;51.966;4.602;2023-04-15T13:25:10;4.15;;;1.08;;
41635;SDS011;27623;51.966;4.602;2023-04-15T13:27:36;2.63;;;1.10;;
41635;SDS011;27623;51.966;4.602;2023-04-15T13:30:02;3.80;;;1.17;;
41635;SDS011;27623;51.966;4.602;2023-04-15T13:32:28;4.47;;;1.30;;
41635;SDS011;27623;51.966;4.602;2023-04-15T13:34:53;2.63;;;1.20;;
41635;SDS011;27623;51.966;4.602;2023-04-15T13:37:25;2.53;;;1.02;;
41635;SDS011;27623;51.966;4.602;2023-04-15T13:39:53;3.00;;;1.00;;
41635;SDS011;27623;51.966;4.602;2023-04-15T13:42:20;3.20;;;1.02;;
41635;SDS011;27623;51.966;4.602;2023-04-15T13:44:46;2.92;;;1.00;;
41635;SDS011;27623;51.966;4.602;2023-04-15T13:47:11;3.63;;;1.00;;
41635;SDS011;27623;51.966;4.602;2023-04-15T13:49:40;3.17;;;1.10;;
41635;SDS011;27623;51.966;4.602;2023-04-15T13:52:05;4.40;;;1.00;;
41635;SDS011;27623;51.966;4.602;2023-04-15T13:54:31;4.47;;;1.10;;
41635;SDS011;27623;51.966;4.602;2023-04-15T13:56:56;2.42;;;0.82;;
41635;SDS011;27623;51.966;4.602;2023-04-15T13:59:24;4.22;;;1.65;;
41635;SDS011;27623;51.966;4.602;2023-04-15T14:01:49;4.13;;;1.40;;
41635;SDS011;27623;51.966;4.602;2023-04-15T14:04:14;5.07;;;1.48;;
41635;SDS011;27623;51.966;4.602;2023-04-15T14:06:40;4.20;;;1.20;;
41635;SDS011;27623;51.966;4.602;2023-04-15T14:09:05;9.32;;;1.80;;
41635;SDS011;27623;51.966;4.602;2023-04-15T14:11:30;5.55;;;1.83;;
41635;SDS011;27623;51.966;4.602;2023-04-15T14:13:58;3.53;;;1.10;;
41635;SDS011;27623;51.966;4.602;2023-04-15T14:16:26;4.03;;;1.17;;
41635;SDS011;27623;51.966;4.602;2023-04-15T14:18:54;3.70;;;0.90;;
41635;SDS011;27623;51.966;4.602;2023-04-15T14:21:20;6.82;;;1.63;;
41635;SDS011;27623;51.966;4.602;2023-04-15T14:23:45;4.00;;;1.70;;
41635;SDS011;27623;51.966;4.602;2023-04-15T14:26:10;4.35;;;1.70;;
41635;SDS011;27623;51.966;4.602;2023-04-15T14:28:37;3.40;;;1.23;;
41635;SDS011;27623;51.966;4.602;2023-04-15T14:31:03;5.78;;;1.92;;
41635;SDS011;27623;51.966;4.602;2023-04-15T14:33:28;9.15;;;1.98;;
41635;SDS011;27623;51.966;4.602;2023-04-15T14:35:53;6.57;;;1.48;;
41635;SDS011;27623;51.966;4.602;2023-04-15T14:38:19;8.02;;;1.80;;
41635;SDS011;27623;51.966;4.602;2023-04-15T14:40:46;3.53;;;1.30;;
41635;SDS011;27623;51.966;4.602;2023-04-15T14:43:12;3.30;;;1.23;;
41635;SDS011;27623;51.966;4.602;2023-04-15T14:45:39;4.18;;;1.02;;
41635;SDS011;27623;51.966;4.602;2023-04-15T14:48:05;5.15;;;1.38;;
41635;SDS011;27623;51.966;4.602;2023-04-15T14:50:33;2.28;;;0.93;;
41635;SDS011;27623;51.966;4.602;2023-04-15T14:52:59;3.00;;;0.85;;